Time;durP1;ratioP1;P1;durP2;ratioP2;P2;SDS_P1;SDS_P2;PMS_P1;PMS_P2;Temp;Humidity;BMP_temperature;BMP_pressure;BME280_temperature;BME280_humidity;BME280_pressure;Samples;Min_cycle;Max_cycle;Signal;HPM_P1;HPM_P2
2022/07/08 00:03:15;;;;;;;8.70;7.97;;;15.80;99.90;;;;;;8301567;28;20191;-66
2022/07/08 00:07:15;;;;;;;7.50;6.80;;;15.80;99.90;;;;;;8298961;28;20202;-64
2022/07/08 00:11:17;;;;;;;7.03;6.43;;;15.80;99.90;;;;;;8308027;28;20215;-63
2022/07/08 00:15:18;;;;;;;6.87;6.17;;;15.70;99.90;;;;;;8320732;28;20186;-63
2022/07/08 00:19:19;;;;;;;6.50;6.00;;;15.70;99.90;;;;;;8306733;28;20340;-63
2022/07/08 00:23:20;;;;;;;6.83;5.40;;;15.70;99.90;;;;;;8300041;28;20175;-65
2022/07/08 00:27:21;;;;;;;7.03;5.03;;;15.70;99.90;;;;;;8311390;28;20213;-63
2022/07/08 00:31:22;;;;;;;6.53;5.00;;;15.60;99.90;;;;;;8304673;28;20259;-62
2022/07/08 00:35:23;;;;;;;4.83;4.37;;;15.60;99.90;;;;;;8305607;28;20190;-63
2022/07/08 00:39:24;;;;;;;5.30;4.20;;;15.60;99.90;;;;;;8305810;28;20191;-63
2022/07/08 00:43:39;;;;;;;6.00;4.87;;;15.50;99.90;;;;;;8305710;28;20194;-65
2022/07/08 00:47:40;;;;;;;4.43;4.03;;;15.50;99.90;;;;;;8303286;28;20294;-64
2022/07/08 00:51:41;;;;;;;5.13;3.90;;;15.50;99.90;;;;;;8310889;28;20213;-62
2022/07/08 00:55:43;;;;;;;5.27;4.47;;;15.40;99.90;;;;;;8310021;28;20314;-65
2022/07/08 00:59:44;;;;;;;4.70;3.93;;;15.40;99.90;;;;;;8308012;28;20260;-64
2022/07/08 01:03:45;;;;;;;6.00;4.00;;;15.30;99.90;;;;;;8304591;28;20864;-63
2022/07/08 01:07:48;;;;;;;10.50;4.53;;;15.30;99.90;;;;;;8305682;28;20234;-64
2022/07/08 01:11:49;;;;;;;7.03;4.43;;;15.30;99.90;;;;;;8305025;28;20214;-65
2022/07/08 01:15:50;;;;;;;6.77;4.50;;;15.30;99.90;;;;;;8306859;28;20182;-64
2022/07/08 01:19:51;;;;;;;7.00;4.00;;;15.20;99.90;;;;;;8301920;28;21245;-63
2022/07/08 01:23:52;;;;;;;5.87;4.00;;;15.20;99.90;;;;;;8307190;28;20191;-64
2022/07/08 01:27:54;;;;;;;7.00;3.77;;;15.20;99.90;;;;;;8297582;28;20209;-66
2022/07/08 01:31:59;;;;;;;6.57;3.80;;;15.10;99.90;;;;;;8302257;28;20190;-65
2022/07/08 01:35:59;;;;;;;7.13;3.80;;;15.20;99.90;;;;;;8307583;28;20183;-66
2022/07/08 01:40:00;;;;;;;6.00;3.97;;;15.10;99.90;;;;;;8313412;28;20186;-65
2022/07/08 01:44:01;;;;;;;11.77;4.30;;;15.00;99.90;;;;;;8315066;28;20182;-63
2022/07/08 01:48:02;;;;;;;10.13;3.87;;;15.00;99.90;;;;;;8312328;28;20258;-64
2022/07/08 01:52:05;;;;;;;7.27;4.10;;;15.00;99.90;;;;;;8317885;28;20306;-74
2022/07/08 01:56:06;;;;;;;9.57;3.70;;;14.90;99.90;;;;;;8324784;28;20189;-63
2022/07/08 02:00:08;;;;;;;11.87;3.40;;;14.90;99.90;;;;;;8318709;28;20213;-63
2022/07/08 02:04:09;;;;;;;10.73;3.90;;;14.90;99.90;;;;;;8307429;28;20183;-66
2022/07/08 02:08:09;;;;;;;7.50;3.60;;;14.90;99.90;;;;;;8314128;28;20305;-65
2022/07/08 02:12:19;;;;;;;8.93;3.37;;;14.90;99.90;;;;;;8315015;28;20186;-65
2022/07/08 02:16:20;;;;;;;8.63;3.90;;;14.80;99.90;;;;;;8316506;28;20179;-66
2022/07/08 02:20:21;;;;;;;12.07;3.90;;;14.80;99.90;;;;;;8315123;28;20194;-64
2022/07/08 02:24:22;;;;;;;9.13;3.90;;;14.80;99.90;;;;;;8310759;28;20549;-64
2022/07/08 02:28:23;;;;;;;12.70;4.40;;;14.80;99.90;;;;;;8314090;28;20621;-65
2022/07/08 02:32:23;;;;;;;8.60;4.40;;;14.80;99.90;;;;;;8310055;28;20259;-63
2022/07/08 02:36:24;;;;;;;15.07;4.47;;;14.70;99.90;;;;;;8311402;28;20182;-64
2022/07/08 02:40:25;;;;;;;18.00;4.67;;;14.70;99.90;;;;;;8311384;28;20213;-63
2022/07/08 02:44:26;;;;;;;16.33;5.53;;;14.70;99.90;;;;;;8308389;28;20222;-63
2022/07/08 02:48:26;;;;;;;9.00;4.10;;;14.70;99.90;;;;;;8317243;28;20245;-64
2022/07/08 02:52:27;;;;;;;8.93;3.60;;;14.60;99.90;;;;;;8306848;28;20203;-63
2022/07/08 02:56:29;;;;;;;11.33;3.87;;;14.60;99.90;;;;;;8312041;28;20586;-68
2022/07/08 03:00:29;;;;;;;8.60;3.47;;;14.60;99.90;;;;;;8312161;28;20235;-64
2022/07/08 03:04:30;;;;;;;9.10;3.40;;;14.60;99.90;;;;;;8307763;28;20194;-66
2022/07/08 03:08:31;;;;;;;10.40;3.93;;;14.60;99.90;;;;;;8305112;28;20206;-66
2022/07/08 03:12:32;;;;;;;10.30;3.63;;;14.50;99.90;;;;;;8308166;28;20214;-64
2022/07/08 03:16:35;;;;;;;9.23;4.10;;;14.40;99.90;;;;;;8310716;28;20214;-66
2022/07/08 03:20:36;;;;;;;8.67;3.57;;;14.40;99.90;;;;;;8307539;28;20191;-64
2022/07/08 03:24:37;;;;;;;8.07;3.87;;;14.40;99.90;;;;;;8303837;28;20186;-64
2022/07/08 03:28:38;;;;;;;10.70;3.30;;;14.30;99.90;;;;;;8295439;28;20283;-64
2022/07/08 03:32:39;;;;;;;10.37;4.03;;;14.30;99.90;;;;;;8303175;28;20190;-64
2022/07/08 03:36:40;;;;;;;8.30;4.20;;;14.20;99.90;;;;;;8307722;28;20225;-65
2022/07/08 03:45:00;;;;;;;7.23;4.47;;;14.20;99.90;;;;;;8303678;28;20605;-66
2022/07/08 03:49:01;;;;;;;13.93;4.80;;;14.10;99.90;;;;;;8303275;28;20210;-65
2022/07/08 03:53:02;;;;;;;9.03;5.00;;;14.10;99.90;;;;;;8300436;28;20221;-64
2022/07/08 03:57:03;;;;;;;8.93;5.13;;;14.10;99.90;;;;;;8302957;28;20197;-67
2022/07/08 04:01:05;;;;;;;12.27;6.00;;;14.00;99.90;;;;;;8303059;28;20222;-64
2022/07/08 04:05:06;;;;;;;14.57;6.33;;;14.00;99.90;;;;;;8302621;28;20194;-65
2022/07/08 04:09:07;;;;;;;15.60;7.27;;;13.90;99.90;;;;;;8301898;28;20219;-66
2022/07/08 04:13:08;;;;;;;18.20;6.83;;;13.90;99.90;;;;;;8300745;28;20269;-64
2022/07/08 04:17:09;;;;;;;16.03;7.77;;;13.80;99.90;;;;;;8329076;28;20191;-65
2022/07/08 04:21:10;;;;;;;12.23;7.13;;;13.80;99.90;;;;;;8304975;28;20194;-64
2022/07/08 04:25:11;;;;;;;17.33;6.63;;;13.80;99.90;;;;;;8306384;28;20192;-64
2022/07/08 04:29:12;;;;;;;16.07;6.23;;;13.80;99.90;;;;;;8302625;28;20238;-65
2022/07/08 04:33:12;;;;;;;13.63;7.60;;;13.90;99.90;;;;;;8299389;28;20194;-65
2022/07/08 04:37:13;;;;;;;17.67;7.00;;;13.90;99.90;;;;;;8313686;28;20217;-64
2022/07/08 04:41:14;;;;;;;20.90;7.83;;;13.90;99.90;;;;;;8309572;28;20248;-67
2022/07/08 04:45:15;;;;;;;18.43;7.17;;;13.90;99.90;;;;;;8317597;28;20241;-65
2022/07/08 04:49:16;;;;;;;12.80;6.47;;;14.00;99.90;;;;;;8304800;28;20218;-65
2022/07/08 04:53:17;;;;;;;13.03;6.17;;;14.00;99.90;;;;;;8308233;28;20512;-63
2022/07/08 04:57:18;;;;;;;18.80;6.80;;;14.00;99.90;;;;;;8317619;28;20186;-64
2022/07/08 05:01:19;;;;;;;19.40;6.73;;;14.10;99.90;;;;;;8311875;28;20240;-65
2022/07/08 05:05:20;;;;;;;22.07;6.17;;;14.10;99.90;;;;;;8312376;28;20201;-67
2022/07/08 05:09:20;;;;;;;11.50;6.00;;;14.20;99.90;;;;;;8304913;28;20227;-66
2022/07/08 05:13:21;;;;;;;16.60;6.50;;;14.20;99.90;;;;;;8307281;28;20194;-64
2022/07/08 05:17:22;;;;;;;15.13;6.70;;;14.20;99.90;;;;;;8311200;28;20186;-65
2022/07/08 05:21:23;;;;;;;15.20;6.27;;;14.20;99.90;;;;;;8313437;28;20260;-63
2022/07/08 05:25:24;;;;;;;16.57;6.33;;;14.30;99.90;;;;;;8307494;28;20553;-65
2022/07/08 05:29:25;;;;;;;15.50;6.20;;;14.30;99.90;;;;;;8306910;28;20214;-66
2022/07/08 05:33:25;;;;;;;20.10;6.20;;;14.40;99.90;;;;;;8308232;28;20194;-64
2022/07/08 05:37:27;;;;;;;18.77;6.90;;;14.40;99.90;;;;;;8291228;28;20187;-66
2022/07/08 05:41:28;;;;;;;23.13;7.30;;;14.40;99.90;;;;;;8304812;28;20199;-64
2022/07/08 05:45:29;;;;;;;19.63;7.50;;;14.40;99.90;;;;;;8307819;28;20187;-64
2022/07/08 05:49:30;;;;;;;18.40;7.77;;;14.40;99.90;;;;;;8307332;28;20226;-65
2022/07/08 05:53:31;;;;;;;18.80;7.53;;;14.30;99.90;;;;;;8310437;28;20236;-65
2022/07/08 05:57:32;;;;;;;22.40;8.70;;;14.40;99.90;;;;;;8309793;28;20190;-66
2022/07/08 06:01:33;;;;;;;18.17;8.40;;;14.40;99.90;;;;;;8305079;28;20206;-65
2022/07/08 06:05:34;;;;;;;17.40;8.53;;;14.40;99.90;;;;;;8314347;28;20212;-64
2022/07/08 06:09:37;;;;;;;17.97;7.70;;;14.40;99.90;;;;;;8302563;28;20217;-66
2022/07/08 06:13:37;;;;;;;18.30;7.23;;;14.40;99.90;;;;;;8312633;28;20194;-64
2022/07/08 06:17:39;;;;;;;17.93;8.83;;;14.60;99.90;;;;;;8305766;28;20254;-65
2022/07/08 06:21:40;;;;;;;18.10;7.57;;;14.60;99.90;;;;;;8317417;28;20452;-65
2022/07/08 06:25:41;;;;;;;22.37;8.20;;;14.60;99.90;;;;;;8307826;28;20400;-65
2022/07/08 06:29:42;;;;;;;24.00;8.20;;;14.70;99.90;;;;;;8322674;28;20222;-64
2022/07/08 06:33:42;;;;;;;24.47;8.50;;;14.80;99.90;;;;;;8297007;28;20184;-63
2022/07/08 06:37:43;;;;;;;20.27;8.23;;;14.70;99.90;;;;;;8306212;28;20198;-66
2022/07/08 06:41:44;;;;;;;30.17;9.07;;;14.70;99.90;;;;;;8308418;28;20191;-64
2022/07/08 06:45:46;;;;;;;25.90;8.60;;;14.60;99.90;;;;;;8312471;28;20202;-68
2022/07/08 06:49:47;;;;;;;17.23;7.90;;;14.60;99.90;;;;;;8343856;28;20214;-64
2022/07/08 06:58:07;;;;;;;19.97;7.40;;;14.60;99.90;;;;;;8306156;28;20236;-66
2022/07/08 07:02:08;;;;;;;16.90;6.87;;;14.60;99.90;;;;;;8317357;28;20186;-63
2022/07/08 07:06:09;;;;;;;15.80;7.53;;;14.60;99.90;;;;;;8305782;28;20199;-64
2022/07/08 07:10:10;;;;;;;15.90;6.50;;;14.70;99.90;;;;;;8306755;28;20297;-64
2022/07/08 07:14:12;;;;;;;16.83;6.60;;;14.80;99.90;;;;;;8304785;28;20284;-65
2022/07/08 07:18:13;;;;;;;22.07;7.10;;;14.80;99.90;;;;;;8334897;28;20261;-65
2022/07/08 07:22:15;;;;;;;22.00;6.57;;;14.80;99.90;;;;;;8304065;28;20187;-65
2022/07/08 07:26:16;;;;;;;16.23;6.23;;;15.00;99.90;;;;;;8308034;28;20286;-63
2022/07/08 07:30:19;;;;;;;19.37;6.57;;;15.40;99.90;;;;;;8306819;28;20214;-63
2022/07/08 07:34:23;;;;;;;16.53;6.50;;;15.50;99.90;;;;;;8336274;28;20221;-72
2022/07/08 07:38:23;;;;;;;16.23;5.93;;;15.30;99.90;;;;;;8306734;28;20202;-65
2022/07/08 07:42:24;;;;;;;13.43;5.63;;;15.60;99.90;;;;;;8303979;28;20222;-65
2022/07/08 07:46:25;;;;;;;13.13;4.93;;;15.90;99.90;;;;;;8321113;28;20219;-65
2022/07/08 07:50:26;;;;;;;10.03;4.80;;;16.40;99.90;;;;;;8306005;28;20699;-65
2022/07/08 07:54:27;;;;;;;10.50;4.70;;;16.60;99.90;;;;;;8307543;28;20262;-65
2022/07/08 07:58:28;;;;;;;7.97;3.87;;;16.70;99.90;;;;;;8308970;28;20194;-66
2022/07/08 08:02:29;;;;;;;10.07;4.00;;;16.70;99.90;;;;;;8308470;28;20195;-68
2022/07/08 08:06:30;;;;;;;11.37;3.80;;;17.00;99.90;;;;;;8309726;28;20296;-65
2022/07/08 08:10:31;;;;;;;7.53;2.80;;;17.40;99.90;;;;;;8302841;28;20583;-66
2022/07/08 08:14:32;;;;;;;6.07;3.47;;;17.60;91.80;;;;;;8308264;28;20175;-67
2022/07/08 08:18:32;;;;;;;12.20;3.30;;;17.60;72.00;;;;;;8312074;28;20206;-66
2022/07/08 08:22:33;;;;;;;8.23;2.93;;;17.40;1.00;;;;;;8314473;28;20241;-63
2022/07/08 08:26:34;;;;;;;8.40;3.23;;;17.20;1.00;;;;;;8306409;28;20190;-65
2022/07/08 08:30:35;;;;;;;7.23;2.87;;;17.10;1.00;;;;;;8309836;28;20305;-65
2022/07/08 08:34:36;;;;;;;9.63;2.97;;;16.90;99.90;;;;;;8309045;28;20191;-64
2022/07/08 08:38:37;;;;;;;13.93;3.37;;;16.60;1.00;;;;;;8309244;28;20232;-66
2022/07/08 08:42:40;;;;;;;10.83;3.93;;;16.40;1.00;;;;;;8309193;28;20704;-65
2022/07/08 08:46:43;;;;;;;10.20;2.70;;;16.30;99.90;;;;;;8312465;28;20241;-64
2022/07/08 08:50:56;;;;;;;8.40;2.83;;;16.30;1.00;;;;;;8345852;28;20441;-63
2022/07/08 08:54:57;;;;;;;9.57;2.57;;;16.50;99.90;;;;;;8303523;28;20194;-65
2022/07/08 08:58:59;;;;;;;6.67;2.50;;;16.60;1.00;;;;;;8303222;28;20194;-66
2022/07/08 09:03:00;;;;;;;9.03;2.67;;;16.60;1.00;;;;;;8312139;28;20189;-65
2022/07/08 09:07:01;;;;;;;9.90;2.40;;;16.60;1.00;;;;;;8310808;28;20201;-64
2022/07/08 09:11:03;;;;;;;9.53;2.67;;;16.50;1.00;;;;;;8311501;28;20311;-67
2022/07/08 09:15:04;;;;;;;7.53;2.50;;;16.30;99.90;;;;;;8310472;28;20217;-65
2022/07/08 09:19:15;;;;;;;6.10;2.70;;;16.30;99.90;;;;;;8311441;28;20237;-65
2022/07/08 09:23:28;;;;;;;5.17;2.10;;;16.60;99.90;;;;;;8309214;28;20200;-69
2022/07/08 09:27:30;;;;;;;5.10;1.90;;;17.00;99.90;;;;;;8304809;28;20198;-65
2022/07/08 09:31:34;;;;;;;7.47;2.10;;;17.20;1.00;;;;;;8309107;28;20226;-66
2022/07/08 09:35:36;;;;;;;5.00;2.07;;;17.40;99.90;;;;;;8313400;28;20187;-66
2022/07/08 09:39:38;;;;;;;6.27;1.67;;;17.50;99.90;;;;;;8307696;28;20191;-67
2022/07/08 09:43:50;;;;;;;7.30;2.10;;;17.60;1.00;;;;;;8343288;28;20192;-66
2022/07/08 09:47:52;;;;;;;5.50;1.87;;;17.60;1.00;;;;;;8310711;28;20202;-68
2022/07/08 09:51:53;;;;;;;5.90;2.00;;;17.90;99.90;;;;;;8310523;28;20214;-65
2022/07/08 09:55:55;;;;;;;6.77;2.20;;;18.00;99.90;;;;;;8309039;28;20197;-67
2022/07/08 09:59:56;;;;;;;3.23;1.40;;;18.10;99.90;;;;;;8311952;28;20222;-67
2022/07/08 10:03:57;;;;;;;8.67;1.80;;;18.70;1.00;;;;;;8310969;28;20182;-65
2022/07/08 10:07:58;;;;;;;6.23;1.77;;;18.50;1.00;;;;;;8310948;28;20294;-64
2022/07/08 10:12:00;;;;;;;5.03;1.80;;;18.40;1.00;;;;;;8313513;28;20209;-63
2022/07/08 10:16:04;;;;;;;5.50;1.50;;;18.50;1.00;;;;;;8309975;28;20178;-64
2022/07/08 10:20:05;;;;;;;4.97;1.37;;;18.60;1.00;;;;;;8313906;28;20186;-65
2022/07/08 10:24:10;;;;;;;6.17;1.47;;;19.10;1.00;;;;;;8312530;28;20186;-66
2022/07/08 10:28:11;;;;;;;3.17;1.20;;;19.20;99.90;;;;;;8311711;28;20214;-67
2022/07/08 10:32:36;;;;;;;3.20;1.50;;;19.40;99.90;;;;;;8309634;28;20262;-69
2022/07/08 10:36:51;;;;;;;6.93;1.53;;;19.20;99.90;;;;;;8310348;28;20187;-65
2022/07/08 10:40:54;;;;;;;5.10;1.20;;;19.30;99.90;;;;;;8309888;28;20256;-66
2022/07/08 10:44:54;;;;;;;4.40;1.20;;;19.60;99.90;;;;;;8312370;28;20612;-70
2022/07/08 10:48:56;;;;;;;3.87;1.97;;;19.80;99.90;;;;;;8314321;28;20214;-66
2022/07/08 10:52:57;;;;;;;5.03;1.53;;;19.60;99.90;;;;;;8309401;28;20345;-67
2022/07/08 10:57:01;;;;;;;2.77;1.10;;;19.40;99.90;;;;;;8313323;28;20190;-65
2022/07/08 11:01:23;;;;;;;5.40;1.50;;;19.30;99.90;;;;;;8313731;28;20229;-68
2022/07/08 11:05:41;;;;;;;5.00;1.17;;;19.70;99.90;;;;;;8308596;28;20226;-68
2022/07/08 11:09:43;;;;;;;7.50;1.50;;;20.00;99.90;;;;;;8312877;28;20219;-67
2022/07/08 11:13:45;;;;;;;6.27;1.33;;;19.70;99.90;;;;;;8347530;28;20194;-66
2022/07/08 11:17:47;;;;;;;4.50;1.40;;;19.60;99.90;;;;;;8318697;28;20287;-68
2022/07/08 11:21:47;;;;;;;4.17;1.37;;;19.80;99.90;;;;;;8315414;28;20195;-68
2022/07/08 11:25:48;;;;;;;2.33;1.20;;;20.50;99.90;;;;;;8318425;28;20183;-68
2022/07/08 11:29:50;;;;;;;5.57;1.33;;;21.40;20.50;;;;;;8312565;28;20198;-68
2022/07/08 11:33:51;;;;;;;1.93;1.20;;;21.90;9.00;;;;;;8309989;28;20290;-65
2022/07/08 11:37:52;;;;;;;3.20;1.20;;;22.10;1.00;;;;;;8309859;28;20190;-66
2022/07/08 11:41:54;;;;;;;4.33;1.10;;;21.70;1.00;;;;;;8307323;28;20286;-68
2022/07/08 11:45:54;;;;;;;4.47;1.80;;;21.20;21.30;;;;;;8307501;28;20187;-67
2022/07/08 11:49:56;;;;;;;3.20;1.30;;;20.80;1.00;;;;;;8306316;28;20217;-68
2022/07/08 11:53:57;;;;;;;2.63;1.13;;;20.60;20.90;;;;;;8306866;28;20183;-71
2022/07/08 11:58:01;;;;;;;3.80;1.37;;;20.80;50.20;;;;;;8308619;28;20191;-68
2022/07/08 12:02:04;;;;;;;1.83;1.00;;;21.00;1.00;;;;;;8305410;28;20187;-68
2022/07/08 12:06:05;;;;;;;5.33;1.07;;;21.10;1.00;;;;;;8305080;28;20198;-67
2022/07/08 12:10:06;;;;;;;5.03;1.20;;;21.10;16.00;;;;;;8310497;28;20671;-71
2022/07/08 12:14:08;;;;;;;5.00;1.20;;;21.10;1.00;;;;;;8302718;28;20191;-65
2022/07/08 12:18:09;;;;;;;3.07;1.20;;;21.00;14.90;;;;;;8312493;28;20179;-69
2022/07/08 12:22:13;;;;;;;3.33;1.40;;;21.20;33.30;;;;;;8313822;28;20182;-69
2022/07/08 12:26:14;;;;;;;2.87;1.17;;;21.70;1.00;;;;;;8338007;28;20404;-68
2022/07/08 12:30:15;;;;;;;5.70;1.20;;;22.00;1.00;;;;;;8305432;28;20212;-68
2022/07/08 12:34:18;;;;;;;3.53;1.23;;;22.20;1.00;;;;;;8317982;28;20185;-67
2022/07/08 12:38:24;;;;;;;3.67;1.50;;;21.50;1.00;;;;;;8309029;28;20183;-69
2022/07/08 12:42:26;;;;;;;2.27;0.93;;;20.80;1.00;;;;;;8314818;28;20194;-68
2022/07/08 12:46:28;;;;;;;1.27;0.83;;;20.50;4.60;;;;;;8310474;28;20233;-66
2022/07/08 12:50:33;;;;;;;2.73;0.80;;;20.80;1.00;;;;;;8314441;28;20206;-69
2022/07/08 12:54:35;;;;;;;3.90;1.20;;;20.30;30.70;;;;;;8311441;28;20270;-67
2022/07/08 12:58:36;;;;;;;2.67;1.07;;;20.00;85.20;;;;;;8313640;28;20383;-67
2022/07/08 13:02:38;;;;;;;5.13;1.30;;;20.50;54.50;;;;;;8308595;28;20587;-70
2022/07/08 13:06:39;;;;;;;3.53;1.27;;;21.30;5.20;;;;;;8312498;28;20221;-66
2022/07/08 13:10:39;;;;;;;11.37;1.27;;;20.80;93.90;;;;;;8314600;28;20199;-70
2022/07/08 13:14:40;;;;;;;5.40;1.93;;;21.10;50.20;;;;;;8310994;28;20188;-68
2022/07/08 13:18:41;;;;;;;6.10;1.40;;;20.50;43.10;;;;;;8312902;28;20197;-70
2022/07/08 13:22:42;;;;;;;7.13;1.47;;;20.00;99.90;;;;;;8308848;28;20190;-69
2022/07/08 13:26:43;;;;;;;5.70;1.73;;;20.00;99.90;;;;;;8312545;28;20188;-66
2022/07/08 13:30:44;;;;;;;5.63;1.60;;;20.50;99.90;;;;;;8303049;28;20223;-67
2022/07/08 13:34:45;;;;;;;5.33;1.63;;;21.20;32.60;;;;;;8307953;28;20183;-68
2022/07/08 13:38:46;;;;;;;3.07;1.60;;;20.70;53.10;;;;;;8323961;28;20180;-66
2022/07/08 13:42:46;;;;;;;4.60;1.80;;;20.40;35.20;;;;;;8310018;28;20190;-66
2022/07/08 13:46:47;;;;;;;4.57;1.50;;;20.10;98.40;;;;;;8309978;28;20240;-68
2022/07/08 13:50:48;;;;;;;5.63;1.60;;;20.00;99.90;;;;;;8317002;28;20246;-67
2022/07/08 13:54:49;;;;;;;5.03;1.97;;;19.80;99.90;;;;;;8310511;28;20192;-69
2022/07/08 13:58:50;;;;;;;3.40;1.30;;;19.90;99.90;;;;;;8310039;28;20333;-68
2022/07/08 14:02:52;;;;;;;4.97;1.57;;;20.30;99.90;;;;;;8303132;28;20187;-66
2022/07/08 14:06:53;;;;;;;7.80;1.67;;;19.90;99.90;;;;;;8315379;28;20307;-65
2022/07/08 14:10:54;;;;;;;3.43;1.60;;;19.80;99.90;;;;;;8316220;28;20214;-69
2022/07/08 14:14:55;;;;;;;3.83;1.50;;;19.50;99.90;;;;;;8350483;28;20191;-68
2022/07/08 14:18:55;;;;;;;4.27;1.50;;;19.60;99.90;;;;;;8314343;28;20596;-68
2022/07/08 14:22:56;;;;;;;5.03;1.20;;;19.60;99.90;;;;;;8319880;28;20194;-67
2022/07/08 14:26:57;;;;;;;5.90;2.07;;;19.40;99.90;;;;;;8323527;28;20186;-67
2022/07/08 14:30:58;;;;;;;7.50;1.60;;;19.10;99.90;;;;;;8311919;28;20226;-70
2022/07/08 14:34:59;;;;;;;5.50;1.53;;;19.20;99.90;;;;;;8310354;28;20190;-66
2022/07/08 14:39:00;;;;;;;6.00;1.40;;;19.20;99.90;;;;;;8313580;28;20182;-74
2022/07/08 14:43:01;;;;;;;4.27;1.47;;;19.10;99.90;;;;;;8308311;28;21694;-67
2022/07/08 14:47:02;;;;;;;3.37;1.33;;;19.20;99.90;;;;;;8347873;28;20202;-69
2022/07/08 14:51:03;;;;;;;5.33;2.50;;;19.50;99.90;;;;;;8316666;28;20257;-68
2022/07/08 14:55:04;;;;;;;3.23;1.23;;;20.10;99.90;;;;;;8317161;28;20255;-68
2022/07/08 14:59:05;;;;;;;5.27;1.60;;;19.70;99.90;;;;;;8318952;28;20198;-69
2022/07/08 15:03:06;;;;;;;5.73;1.50;;;19.20;99.90;;;;;;8310227;28;20194;-67
2022/07/08 15:07:07;;;;;;;9.73;2.00;;;19.00;99.90;;;;;;8313605;28;20203;-68
2022/07/08 15:11:08;;;;;;;6.53;1.63;;;18.80;99.90;;;;;;8310047;28;20219;-66
2022/07/08 15:15:09;;;;;;;9.63;1.90;;;18.00;99.90;;;;;;8316953;28;20182;-65
2022/07/08 15:19:11;;;;;;;6.27;1.70;;;17.70;99.90;;;;;;8313764;28;20195;-68
2022/07/08 15:23:14;;;;;;;3.50;1.63;;;18.20;99.90;;;;;;8317878;28;20226;-67
2022/07/08 15:27:15;;;;;;;3.83;1.30;;;18.90;99.90;;;;;;8311622;28;20221;-66
2022/07/08 15:31:15;;;;;;;5.20;1.63;;;19.10;99.90;;;;;;8303385;28;20222;-67
2022/07/08 15:35:16;;;;;;;4.47;1.47;;;19.10;99.90;;;;;;8315921;28;20592;-67
2022/07/08 15:39:17;;;;;;;4.63;1.80;;;19.10;99.90;;;;;;8311783;28;20202;-66
2022/07/08 15:43:19;;;;;;;5.27;1.90;;;19.20;91.90;;;;;;8320981;28;20191;-67
2022/07/08 15:47:19;;;;;;;5.10;1.60;;;19.20;99.90;;;;;;8317395;28;20249;-66
2022/07/08 15:51:20;;;;;;;5.70;1.20;;;19.00;99.90;;;;;;8310014;28;20219;-66
2022/07/08 15:55:21;;;;;;;2.73;1.20;;;18.80;99.90;;;;;;8311381;28;20187;-65
2022/07/08 15:59:22;;;;;;;8.53;1.70;;;18.80;99.90;;;;;;8321500;28;20201;-65
2022/07/08 16:03:23;;;;;;;4.13;1.40;;;18.80;99.90;;;;;;8313991;28;20199;-65
2022/07/08 16:07:24;;;;;;;5.90;1.50;;;19.00;99.90;;;;;;8317091;28;20202;-67
2022/07/08 16:11:24;;;;;;;6.10;1.30;;;18.90;99.90;;;;;;8318812;28;20290;-67
2022/07/08 16:15:25;;;;;;;8.00;1.63;;;18.60;99.90;;;;;;8311015;28;20198;-66
2022/07/08 16:19:26;;;;;;;5.57;1.30;;;18.50;99.90;;;;;;8320687;28;20204;-66
2022/07/08 16:23:27;;;;;;;6.27;1.40;;;18.50;99.90;;;;;;8316331;28;20214;-64
2022/07/08 16:27:29;;;;;;;4.43;1.53;;;18.50;99.90;;;;;;8319856;28;20191;-65
2022/07/08 16:31:30;;;;;;;5.23;1.63;;;18.70;99.90;;;;;;8313359;28;20217;-64
2022/07/08 16:35:31;;;;;;;5.47;1.43;;;18.60;99.90;;;;;;8319198;28;20217;-63
2022/07/08 16:39:34;;;;;;;6.40;1.30;;;18.70;98.50;;;;;;8326237;28;20191;-66
2022/07/08 16:43:35;;;;;;;3.47;1.10;;;19.00;87.30;;;;;;8316974;28;20187;-66
2022/07/08 16:47:36;;;;;;;3.77;1.23;;;19.10;60.60;;;;;;8340520;28;20187;-64
2022/07/08 16:51:37;;;;;;;3.47;1.13;;;19.00;66.00;;;;;;8315436;28;20249;-66
2022/07/08 16:55:38;;;;;;;4.70;1.60;;;18.80;75.00;;;;;;8314776;28;20756;-66
2022/07/08 16:59:39;;;;;;;4.13;1.20;;;18.70;67.40;;;;;;8312980;28;20196;-65
2022/07/08 17:03:41;;;;;;;4.77;1.40;;;18.60;79.10;;;;;;8313783;28;20253;-64
2022/07/08 17:07:42;;;;;;;4.57;1.47;;;18.60;94.60;;;;;;8321436;28;20212;-67
2022/07/08 17:11:42;;;;;;;6.03;1.33;;;18.70;98.30;;;;;;8329468;28;20210;-65
2022/07/08 17:15:43;;;;;;;5.47;1.50;;;18.70;99.90;;;;;;8332979;28;20207;-65
2022/07/08 17:19:44;;;;;;;5.53;1.23;;;18.70;98.10;;;;;;8316235;28;20188;-67
2022/07/08 17:23:45;;;;;;;4.30;1.23;;;18.70;97.50;;;;;;8325273;28;20182;-64
2022/07/08 17:27:47;;;;;;;4.73;1.30;;;18.70;99.90;;;;;;8323132;28;20250;-65
2022/07/08 17:31:48;;;;;;;5.70;1.40;;;18.60;99.90;;;;;;8318785;28;20214;-66
2022/07/08 17:35:49;;;;;;;4.40;1.60;;;18.50;99.90;;;;;;8324549;28;20252;-64
2022/07/08 17:39:54;;;;;;;4.27;1.50;;;18.50;99.90;;;;;;8318198;28;20191;-66
2022/07/08 17:43:56;;;;;;;5.10;1.53;;;18.40;99.90;;;;;;8316378;28;20199;-66
2022/07/08 17:47:57;;;;;;;5.73;1.20;;;18.40;99.90;;;;;;8322735;28;20178;-67
2022/07/08 17:52:02;;;;;;;7.23;1.40;;;18.40;99.90;;;;;;8327198;28;20224;-67
2022/07/08 17:56:03;;;;;;;3.97;1.40;;;18.30;99.90;;;;;;8332361;28;20202;-64
2022/07/08 18:00:05;;;;;;;6.50;1.77;;;18.20;99.90;;;;;;8326216;28;20652;-64
2022/07/08 18:04:06;;;;;;;6.07;1.50;;;18.20;99.90;;;;;;8316751;28;20187;-70
2022/07/08 18:08:07;;;;;;;7.47;1.53;;;18.10;99.90;;;;;;8313879;28;20201;-65
2022/07/08 18:12:09;;;;;;;6.60;1.60;;;18.10;99.90;;;;;;8315494;28;20237;-65
2022/07/08 18:16:10;;;;;;;5.67;1.40;;;18.00;99.90;;;;;;8321524;28;20182;-65
2022/07/08 18:20:11;;;;;;;6.87;1.97;;;18.00;99.90;;;;;;8319196;28;20214;-64
2022/07/08 18:24:12;;;;;;;3.63;1.53;;;18.00;99.90;;;;;;8316746;28;20217;-67
2022/07/08 18:28:13;;;;;;;5.90;1.70;;;17.90;99.90;;;;;;8321269;28;20206;-66
2022/07/08 18:32:14;;;;;;;6.10;1.30;;;17.90;99.90;;;;;;8319623;28;20213;-71
2022/07/08 18:36:16;;;;;;;9.17;2.03;;;17.80;99.90;;;;;;8323907;28;20265;-66
2022/07/08 18:40:17;;;;;;;5.93;1.50;;;17.80;99.90;;;;;;8318058;28;20211;-64
2022/07/08 18:44:17;;;;;;;4.27;1.60;;;17.80;99.90;;;;;;8314890;28;20225;-64
2022/07/08 18:48:19;;;;;;;5.93;1.77;;;17.70;99.90;;;;;;8323727;28;20182;-66
2022/07/08 18:52:20;;;;;;;5.60;1.97;;;17.70;99.90;;;;;;8324388;28;20210;-66
2022/07/08 18:56:20;;;;;;;4.57;1.77;;;17.70;99.90;;;;;;8320488;28;20260;-64
2022/07/08 19:00:21;;;;;;;3.83;1.47;;;17.60;99.90;;;;;;8329186;28;20190;-64
2022/07/08 19:04:22;;;;;;;6.40;1.67;;;17.60;99.90;;;;;;8314239;28;20186;-64
2022/07/08 19:08:24;;;;;;;5.90;1.50;;;17.60;99.90;;;;;;8355852;28;20232;-64
2022/07/08 19:12:25;;;;;;;5.80;2.07;;;17.50;99.90;;;;;;8322888;28;20215;-64
2022/07/08 19:16:26;;;;;;;4.20;1.70;;;17.50;99.90;;;;;;8317065;28;20181;-65
2022/07/08 19:20:27;;;;;;;2.57;1.50;;;17.50;99.90;;;;;;8324581;28;20187;-65
2022/07/08 19:24:28;;;;;;;5.47;1.47;;;17.40;99.90;;;;;;8315667;28;20281;-72
2022/07/08 19:28:28;;;;;;;3.03;1.67;;;17.40;99.90;;;;;;8319948;28;20193;-65
2022/07/08 19:32:30;;;;;;;7.10;1.80;;;17.30;99.90;;;;;;8323054;28;20720;-63
2022/07/08 19:36:31;;;;;;;4.37;1.80;;;17.30;99.90;;;;;;8320500;28;20191;-62
2022/07/08 19:40:32;;;;;;;6.23;1.77;;;17.20;99.90;;;;;;8308995;28;20269;-63
2022/07/08 19:44:33;;;;;;;5.50;1.80;;;17.20;99.90;;;;;;8318474;28;20193;-64
2022/07/08 19:48:34;;;;;;;7.30;2.03;;;17.10;99.90;;;;;;8306477;28;20214;-61
2022/07/08 19:52:35;;;;;;;3.33;1.57;;;17.00;99.90;;;;;;8307181;28;20280;-65
2022/07/08 19:56:36;;;;;;;6.43;1.80;;;16.90;1.00;;;;;;8305825;28;20194;-62
2022/07/08 20:00:37;;;;;;;3.40;1.70;;;16.70;1.00;;;;;;8313856;28;20195;-62
2022/07/08 20:04:38;;;;;;;4.83;1.57;;;16.50;1.00;;;;;;8316243;28;20205;-62
2022/07/08 20:08:40;;;;;;;5.70;1.67;;;16.40;1.00;;;;;;8309819;28;20198;-63
2022/07/08 20:12:40;;;;;;;3.70;1.83;;;16.20;1.00;;;;;;8312650;28;20195;-64
2022/07/08 20:16:43;;;;;;;4.33;1.30;;;16.00;3.90;;;;;;8308930;28;20210;-63
2022/07/08 20:20:47;;;;;;;3.97;1.47;;;15.80;77.00;;;;;;8339209;28;20218;-62
2022/07/08 20:24:48;;;;;;;4.83;1.77;;;15.70;99.90;;;;;;8310859;28;20204;-62
2022/07/08 20:28:52;;;;;;;3.50;1.30;;;15.50;99.90;;;;;;8315172;28;20202;-64
2022/07/08 20:32:53;;;;;;;5.77;1.60;;;15.40;99.90;;;;;;8306871;28;20179;-63
2022/07/08 20:36:54;;;;;;;2.73;1.00;;;15.20;99.90;;;;;;8310924;28;20202;-63
2022/07/08 20:45:16;;;;;;;2.57;1.30;;;14.90;99.90;;;;;;8309232;28;20236;-63
2022/07/08 20:49:17;;;;;;;3.33;1.30;;;14.70;1.00;;;;;;8313051;28;20214;-63
2022/07/08 20:53:18;;;;;;;2.00;1.27;;;14.60;1.00;;;;;;8313738;28;20213;-64
2022/07/08 20:57:19;;;;;;;2.70;1.50;;;14.40;1.00;;;;;;8312973;28;20237;-64
2022/07/08 21:01:19;;;;;;;2.03;1.30;;;14.20;32.70;;;;;;8308592;28;20272;-63
2022/07/08 21:05:20;;;;;;;2.33;1.40;;;14.10;99.90;;;;;;8311378;28;20316;-63
2022/07/08 21:09:21;;;;;;;2.17;1.20;;;13.90;99.90;;;;;;8312606;28;20217;-63